x

9439040 - Astoria, Or (asto3) Weather Station

5:48 - Wed 18th Jan 2017 All times are PST. -8 hours from GMT.

  • Wind
    1mph, 5mph gusts
  • Sea Temp 37°f
  • Luft Temp 47°f
  • Sea Pressure 989.2mb
  • 9439040 - Astoria, Or
  • 9439040 - Astoria, Or

More Historic Weather Station data

Upgrade to MSW Pro to gain access to the past 30 days of data for over 8000 Wavebouys and Weather Stations around the globe.

Join Pro

Comparision Forecast

View Surf forecast
   
Mi 01/18 5:48 1 5 mph 989.2mb 37f 47f
5:42  -  2 mph 989.2mb 37f 46f
5:36  -  3 mph 989.3mb 37f 46f
5:30  -  2 mph 989.3mb 37f 47f
5:24 1 6 mph 989.3mb 37f 47f
5:18 3 7 mph 989.4mb 37f 47f
5:12 3 6 mph 989.4mb 37f 47f
5:06 3 5 mph 989.6mb 37f 47f
5:00 2 6 mph 989.5mb 37f 48f
4:54 5 7 mph 989.4mb 37f 48f
4:48 3 6 mph 989.4mb 37f 48f
4:42 5 6 mph 989.3mb 37f 48f
4:36 2 3 mph 989.5mb 37f 48f
4:30 1 3 mph 989.6mb 37f 47f
4:24 1 2 mph 989.7mb 37f 47f
4:18 2 3 mph 989.9mb 37f 47f
4:12 3 13 mph 990.3mb 37f 47f
4:06 7 10 mph 990.4mb 37f 47f
4:00 3 7 mph 990.3mb 37f 49f
3:54 3 7 mph 990.3mb 37f 47f
3:48 2 8 mph 990.5mb 37f 48f
3:42 7 10 mph 990.4mb 37f 50f
3:36 1 6 mph 990.6mb 37f 49f
3:30 1 6 mph 990.7mb 37f 50f
3:24 3 6 mph 990.8mb 37f 49f
3:18 2 5 mph 990.9mb 37f 51f
3:12 3 11 mph 991mb 37f 52f
3:06 9 14 mph 991.1mb 37f 52f
3:00 10 18 mph 991.4mb 37f 53f
2:54 10 22 mph 991.5mb 37f 53f
2:48 8 17 mph 991.5mb 37f 53f
2:42 7 15 mph 991.5mb 37f 53f
2:36 5 8 mph 991.6mb 37f 50f
2:30 2 5 mph 991.6mb 37f 52f
2:24 2 5 mph 991.7mb 37f 52f
2:18 3 5 mph 991.6mb 37f 53f
2:12 3 6 mph 991.8mb 37f 53f
2:06 3 8 mph 991.8mb 37f 53f
2:00 6 9 mph 991.9mb 37f 53f
1:54 5 10 mph 991.9mb 37f 53f
1:48 5 6 mph 992.1mb 37f 50f
1:42 2 3 mph 992.3mb 37f 53f
1:36 1 2 mph 992.3mb 37f 54f
1:30  -  6 mph 992.5mb 37f 54f
1:24 5 7 mph 992.7mb 37f 54f
1:18 5 7 mph 992.5mb 38f 54f
1:12 6 10 mph 992.5mb 38f 54f
1:06 5 9 mph 992.5mb 38f 54f
1:00 3 7 mph 992.6mb 38f 53f
12:54 5 6 mph 992.7mb 38f 53f
12:48 2 3 mph 992.7mb 38f 53f
12:42 2 3 mph 992.7mb 38f 53f
12:36 5 7 mph 992.7mb 38f 53f
12:30 6 10 mph 992.7mb 38f 53f
12:24 3 5 mph 993mb 38f 53f
12:18  -  2 mph 993.1mb 38f 53f
12:12 1 6 mph 993.2mb 38f 53f
12:06 1 6 mph 993.1mb 38f 53f
12:00 5 8 mph 993.2mb 38f 53f
11:54 8 21 mph 993.3mb 38f 54f
11:48 15 21 mph 993.4mb 38f 54f
11:42 14 20 mph 993.3mb 38f 55f
11:36 10 22 mph 993.4mb 38f 55f
11:30 18 26 mph 993.5mb 38f 55f
11:24 9 17 mph 993.3mb 38f 55f
11:18 14 24 mph 993.3mb 38f 55f
11:06 13 21 mph 993.7mb 38f 55f
11:00 13 20 mph 993.9mb 38f 55f
10:54 14 29 mph 993.9mb 38f 55f
10:48 11 21 mph 994.1mb 38f 55f
10:42 14 22 mph 993.9mb 38f 55f
10:36 15 25 mph 993.9mb 38f 55f
10:30 9 24 mph 993.8mb 38f 54f
10:24 15 24 mph 993.8mb 38f 54f
10:18 11 24 mph 993.8mb 38f 54f
10:12 11 18 mph 994mb 38f 55f
10:06 16 26 mph 993.9mb 38f 55f
10:00 15 25 mph 993.9mb 38f 55f
9:54 18 26 mph 993.8mb 38f 55f
9:48 18 30 mph 993.7mb 38f 55f
9:42 15 22 mph 993.7mb 38f 54f
9:36 18 25 mph 993.7mb 38f 55f
9:30 11 23 mph 994mb 38f 54f
9:24 21 32 mph 993.8mb 38f 54f
9:18 21 33 mph 993.9mb 38f 54f
9:12 14 23 mph 993.8mb 38f 54f
9:06 17 33 mph 993.9mb 38f 54f
9:00 16 33 mph 993.8mb 38f 54f
8:54 18 31 mph 993.6mb 38f 53f
8:48 14 28 mph 993.6mb 38f 53f
8:42 15 29 mph 993.6mb 38f 54f
8:36 11 26 mph 993.5mb 38f 53f
8:30 14 33 mph 993.4mb 38f 54f
8:24 15 31 mph 993.5mb 38f 54f
8:18 15 25 mph 993.3mb 38f 54f
8:12 21 29 mph 993.4mb 38f 54f
8:06 15 32 mph 993.4mb 38f 54f
8:00 22 30 mph 993.4mb 38f 54f
7:54 17 38 mph 993.3mb 38f 53f
7:48 25 39 mph 993.5mb 38f 54f
7:42 25 37 mph 993.4mb 38f 54f
7:36 24 40 mph 993.1mb 38f 53f
7:30 21 33 mph 993mb 38f 54f
7:24 28 43 mph 993mb 38f 54f
7:18 22 39 mph 992.9mb 38f 54f
7:12 30 45 mph 992.6mb 37f 54f
7:06 18 34 mph 992.5mb 38f 55f
7:00 26 45 mph 992.5mb 37f 55f
6:54 30 53 mph 992.4mb 37f 55f
6:48 28 37 mph 992.3mb 37f 55f
6:42 29 41 mph 992.4mb 37f 55f
6:36 26 46 mph 992.3mb 37f 56f
6:30 20 48 mph 992.4mb 37f 55f
6:24 22 32 mph 992.5mb 37f 55f
6:18 14 26 mph 992.5mb 37f 55f
6:12 13 28 mph 992.3mb 37f 55f
6:06 13 24 mph 992.3mb 37f 55f
6:00 11 20 mph 992.4mb 37f 54f
5:54 9 15 mph 992.2mb 37f 54f
5:48 10 15 mph 992.4mb 37f 54f
5:42 8 18 mph 992.4mb 37f 53f
5:36 7 17 mph 992.6mb 37f 54f
5:30 9 28 mph 992.9mb 37f 54f
5:24 15 25 mph 993mb 37f 55f
5:18 13 20 mph 993.1mb 37f 55f
5:12 13 20 mph 993.3mb 37f 55f
5:06 13 17 mph 993.6mb 37f 56f
5:00 11 16 mph 993.7mb 37f 56f
4:54 10 15 mph 993.8mb 37f 55f
4:48 9 15 mph 994mb 37f 55f
4:42 9 17 mph 994.1mb 37f 54f
4:36 11 18 mph 994.3mb 37f 54f
4:30 5 11 mph 994.4mb 37f 52f
4:24 2 9 mph 994.6mb 37f 51f
4:18 3 9 mph 994.6mb 37f 50f
4:12 5 6 mph 994.8mb 37f 47f
4:06 6 11 mph 994.9mb 37f 46f
4:00 8 13 mph 994.9mb 37f 46f
3:54 7 8 mph 995mb 37f 45f
3:48 5 14 mph 995mb 37f 46f
3:42 6 11 mph 994.9mb 37f 47f
3:36 3 9 mph 995mb 37f 48f
3:30 2 10 mph 995.1mb 37f 49f
3:24 5 9 mph 995.3mb 37f 51f
3:18 2 6 mph 995.6mb 37f 50f
3:12 5 9 mph 995.8mb 37f 50f
3:06 7 10 mph 995.9mb 37f 49f
3:00 3 6 mph 996mb 37f 46f
2:54 2 6 mph 996.1mb 37f 47f
2:48 5 7 mph 996.1mb 37f 48f
2:42 7 14 mph 996.2mb 37f 48f
2:36 7 10 mph 996.2mb 37f 49f
2:30 7 14 mph 996.3mb 37f 51f
2:24 9 23 mph 996.3mb 37f 53f
2:18 15 24 mph 996.6mb 37f 54f
2:12 8 18 mph 996.6mb 37f 53f
2:06 10 22 mph 996.6mb 37f 53f
2:00 17 33 mph 996.6mb 37f 53f
1:54 20 25 mph 996.8mb 37f 53f
1:48 20 32 mph 996.9mb 37f 53f
1:42 13 20 mph 996.9mb 37f 53f
1:36 17 28 mph 997mb 37f 53f
1:30 18 31 mph 997.1mb 37f 53f
1:24 13 26 mph 997.2mb 37f 53f
1:18 15 31 mph 997.2mb 37f 53f
1:12 11 20 mph 997.3mb 37f 52f
1:06 14 26 mph 997.3mb 37f 51f
1:00 7 9 mph 997.5mb 37f 49f
12:54 8 24 mph 997.7mb 37f 51f
12:48 14 25 mph 997.8mb 37f 53f
12:42 14 20 mph 997.7mb 37f 53f
12:36 14 26 mph 997.7mb 37f 52f
12:30 18 32 mph 997.9mb 37f 53f
12:24 16 24 mph 998.2mb 37f 52f
12:18 14 26 mph 998.5mb 37f 52f
12:12 23 37 mph 998.6mb 37f 53f
12:06 22 29 mph 998.6mb 37f 53f
12:00 18 33 mph 998.8mb 37f 53f
Di 01/17 11:54 25 32 mph 998.8mb 37f 53f
11:48 22 38 mph 998.9mb 37f 53f
11:42 20 33 mph 999.1mb 37f 53f
11:36 22 39 mph 999.2mb 37f 53f
11:30 25 34 mph 999.2mb 37f 53f
11:24 18 28 mph 999.3mb 37f 52f
11:18 28 38 mph 999.4mb 37f 53f
11:12 21 31 mph 999.6mb 37f 53f
11:06 16 28 mph 999.6mb 37f 52f
11:00 16 26 mph 999.6mb 37f 52f
10:54 20 33 mph 999.6mb 37f 52f
10:48 17 44 mph 999.7mb 37f 52f
10:42 20 28 mph 999.8mb 37f 52f
10:36 20 29 mph 999.9mb 37f 52f
10:30 24 36 mph 999.9mb 37f 53f
10:24 22 30 mph 999.9mb 37f 52f
10:18 17 34 mph 999.8mb 37f 52f
10:12 15 22 mph 999.7mb 37f 52f
10:00 21 37 mph 999.5mb 37f -
9:54 17 29 mph 999.5mb 37f 53f
9:48 25 37 mph 999.6mb 37f 53f
9:42 16 33 mph 999.6mb 37f 53f
9:36 15 37 mph 999.5mb 37f 53f
9:30 15 32 mph 999.6mb 37f 53f
9:24 16 34 mph 999.5mb 37f 53f
9:18 11 28 mph 999.6mb 37f 53f
9:12 14 31 mph 999.6mb 37f 53f
9:06 15 23 mph 999.7mb 37f 53f
9:00 14 24 mph 999.8mb 37f 53f
8:54 13 23 mph 999.7mb 37f 53f
8:48 18 30 mph 999.9mb 37f 54f
8:42 8 30 mph 999.9mb 37f 53f
8:36 5 11 mph 999.9mb 37f 48f
8:30 7 11 mph 999.9mb 37f 45f
8:24 5 8 mph 999.6mb 37f 45f
8:18 8 15 mph 999.8mb 37f 44f
8:12 5 20 mph 999.6mb 37f 45f
8:06 7 15 mph 999.4mb 37f 44f
8:00 3 7 mph 999.6mb 37f 44f
7:54 10 17 mph 999.6mb 37f 44f
7:48 6 11 mph 999.2mb 37f 43f
7:42 5 14 mph 999.4mb 37f 43f
7:36 7 11 mph 999.2mb 37f 43f
7:30 6 13 mph 999.3mb 37f 43f
7:24 5 11 mph 999.3mb 37f 43f
7:18 6 16 mph 999.3mb 37f 43f
7:12 6 9 mph 999.2mb 37f 43f
7:06 5 15 mph 999.3mb 37f 42f
7:00 7 18 mph 999.3mb 37f 42f
6:54 3 13 mph 999.2mb 37f 43f
6:48 5 11 mph 999.3mb 37f 42f
6:42 5 11 mph 999.4mb 37f 42f
6:36 3 11 mph 999.4mb 37f 42f
6:30 5 11 mph 999.4mb 36f 42f
6:24 6 16 mph 999.4mb 37f 42f
6:18 7 13 mph 999.4mb 37f 42f
6:12 6 18 mph 999.6mb 37f 42f
6:06 5 18 mph 999.7mb 37f 42f
6:00 5 14 mph 999.8mb 37f 42f
5:54 6 13 mph 999.9mb 37f 41f
5:48 3 10 mph 999.9mb 36f 41f
5:42 5 10 mph 999.9mb 36f 41f
5:36 6 17 mph 1000mb 36f 41f
5:30 8 15 mph 1000.2mb 36f 41f
5:24 6 14 mph 1000.1mb 36f 41f
5:18 3 20 mph 1000.3mb 36f 41f
5:12 10 18 mph 1000.3mb 36f 41f
5:06 10 17 mph 1000.4mb 36f 40f
5:00 6 17 mph 1000.5mb 36f 40f
4:54 9 16 mph 1000.2mb 36f 40f
4:48 8 15 mph 1000.5mb 36f 40f
4:42 10 18 mph 1000.5mb 36f 40f
4:36 11 20 mph 1000.4mb 36f 40f
4:30 9 18 mph 1000.5mb 36f 40f
4:24 9 20 mph 1000.6mb 36f 40f
4:18 11 17 mph 1000.6mb 36f 40f
4:12 13 21 mph 1000.5mb 36f 39f
4:06 6 15 mph 1000.8mb 36f 39f
4:00 9 17 mph 1000.8mb 36f 39f
3:54 13 17 mph 1001mb 36f 39f
3:48 11 17 mph 1001mb 36f 39f
3:42 11 20 mph 1001.1mb 36f 38f
3:36 13 17 mph 1001.1mb 36f 39f
3:30 8 16 mph 1001.3mb 36f 39f
3:24 5 10 mph 1001.4mb 36f 39f
3:18 6 13 mph 1001.5mb 36f 39f
3:12 3 14 mph 1001.5mb 36f 39f
3:06 5 16 mph 1001.5mb 36f 39f
3:00 6 17 mph 1001.4mb 36f 39f
2:54 5 14 mph 1001.8mb 36f 39f
2:48 7 13 mph 1002.4mb 36f 39f
2:42 8 17 mph 1002.5mb 36f 39f
2:36 3 11 mph 1002.2mb 36f 39f
2:30 6 14 mph 1002.2mb 36f 38f
2:24 5 9 mph 1002.8mb 36f 38f
2:18 7 10 mph 1002.6mb 36f 38f
2:12 6 9 mph 1003.5mb 36f 38f
2:06 5 14 mph 1002.3mb 36f 38f
2:00 9 14 mph 1002.1mb 36f 38f
1:54 6 15 mph 1002.6mb 36f 38f
1:48 7 13 mph 1002.8mb 36f 38f
1:42 7 14 mph 1002.8mb 36f 38f
1:36 6 13 mph 1003.4mb 36f 37f
1:30 6 14 mph 1003.7mb 36f 37f
1:24 10 17 mph 1003.7mb 36f 38f
1:18 9 15 mph 1003.7mb 36f 38f
1:12 9 15 mph 1003.8mb 36f 39f
1:06 9 17 mph 1004.1mb 36f 38f
1:00 10 16 mph 1004.6mb 36f 38f
12:54 11 18 mph 1004.9mb 36f 38f
12:48 6 16 mph 1005.2mb 36f 38f
12:42 10 15 mph 1005.5mb 36f 39f
12:36 8 13 mph 1005.9mb 36f 40f
12:30 6 14 mph 1006mb 36f 39f
12:24 6 13 mph 1006.2mb 36f 39f
12:18 9 15 mph 1006.2mb 36f 39f
12:12 5 10 mph 1006.3mb 36f 39f
12:06 6 11 mph 1006.5mb 36f 39f
12:00 5 8 mph 1006.4mb 36f 38f
11:54 7 13 mph 1006.8mb 36f 38f
11:48 5 14 mph 1006.8mb 36f 38f
11:42 8 15 mph 1006.8mb 36f 39f
11:36 3 7 mph 1006.9mb 36f 39f
11:30 8 11 mph 1006.9mb 36f 38f
11:24 6 10 mph 1006.8mb 36f 38f
11:18 6 9 mph 1007.1mb 36f 38f
11:12 5 11 mph 1007.2mb 36f 38f
11:06 2 9 mph 1007.7mb 36f 38f
11:00 6 9 mph 1007.7mb 36f 39f
10:54 5 16 mph 1007.4mb 36f 39f
10:48 5 10 mph 1007.2mb 36f 38f
10:42 8 13 mph 1007.2mb 36f 39f
10:36 5 13 mph 1007.2mb 36f 38f
10:30 5 11 mph 1007.5mb 36f 38f
10:24 9 14 mph 1007.9mb 36f 38f
10:18 6 16 mph 1008.2mb 36f 37f
10:12 9 15 mph 1008.2mb 36f 37f
10:06 7 13 mph 1008.4mb 36f 38f
10:00 7 13 mph 1008.2mb 36f 37f
9:54 3 9 mph 1008.1mb 36f 38f
9:48 8 15 mph 1008mb 36f 38f
9:42 2 11 mph 1008.1mb 36f 38f
9:36 6 9 mph 1008.2mb 36f 38f
9:30 3 11 mph 1008.4mb 36f 38f
9:24 6 14 mph 1008.3mb 36f 38f
9:18 2 9 mph 1008.3mb 36f 38f
9:12 2 13 mph 1008.3mb 36f 38f
9:06 3 10 mph 1008.3mb 36f 38f
9:00 5 15 mph 1008.4mb 36f 38f
8:54 7 15 mph 1008.3mb 36f 37f
8:48 8 17 mph 1008.3mb 36f 37f
8:42 8 17 mph 1008mb 36f 37f
8:36 8 17 mph 1008.1mb 36f 37f
8:30 10 18 mph 1008.1mb 36f 37f
8:24 10 21 mph 1008.1mb 36f 38f
8:18 11 16 mph 1008.2mb 36f 37f
8:12 10 16 mph 1008.2mb 36f 37f
8:06 8 15 mph 1008.2mb 36f 37f
8:00 6 11 mph 1008.1mb 36f 37f
7:54 3 11 mph 1008mb 36f 37f
7:48 6 10 mph 1008.1mb 36f 37f
7:42 7 16 mph 1008.1mb 36f 37f
7:36 8 20 mph 1008.1mb 36f 37f
7:30 5 9 mph 1007.9mb 36f 37f
7:24 8 18 mph 1007.9mb 36f 37f
7:18 6 14 mph 1007.7mb 36f 37f
7:12 7 14 mph 1007.9mb 36f 37f
7:06 6 13 mph 1008.1mb 36f 37f
7:00 6 15 mph 1008.5mb 36f 37f
6:54 3 10 mph 1008.6mb 36f 36f
6:48 7 14 mph 1008.7mb 37f 36f
6:42 6 15 mph 1008.8mb 36f 37f
6:36 3 11 mph 1008.8mb 36f 37f
6:30 5 10 mph 1008.9mb 36f 37f
6:24 6 10 mph 1009mb 36f 37f
6:18 8 14 mph 1009mb 36f 37f
6:12 6 17 mph 1009mb 36f 37f
6:06 6 13 mph 1009.1mb 36f 37f
6:00 8 15 mph 1009.2mb 36f 37f
5:54 6 11 mph 1009.4mb 36f 37f
5:48 3 7 mph 1009.6mb 36f 37f
5:42 3 7 mph 1009.5mb 37f 37f
5:36 5 9 mph 1009.5mb 37f 37f
5:30 3 8 mph 1009.8mb 37f 37f
5:24 6 13 mph 1010mb 37f 37f
5:18 11 15 mph 1010.1mb 37f 37f
5:12 8 15 mph 1010.4mb 37f 36f
5:06 7 22 mph 1010.4mb 37f 36f
5:00 11 22 mph 1010.8mb 36f 36f
4:54 11 18 mph 1010.9mb 36f 36f
4:48 9 18 mph 1010.6mb 36f 36f
4:42 7 16 mph 1010.6mb 36f 36f
4:36 6 13 mph 1010.8mb 36f 36f
4:30 5 13 mph 1010.8mb 36f 36f
4:24 3 10 mph 1010.7mb 36f 36f
4:18 9 20 mph 1010.6mb 36f 36f
4:12 5 15 mph 1010.4mb 36f 36f
4:06 5 15 mph 1010.4mb 36f 36f
4:00 9 16 mph 1010.6mb 36f 36f
3:54 5 10 mph 1010.9mb 36f 36f
3:48 3 7 mph 1011.1mb 36f 36f
3:42 5 9 mph 1011.3mb 36f 36f
3:36 6 13 mph 1011.4mb 36f 36f
3:30 6 9 mph 1011.8mb 36f 36f
3:24 5 10 mph 1012mb 36f 36f
3:18 2 11 mph 1012.3mb 36f 36f
3:12 8 11 mph 1012.4mb 36f 37f
3:06 7 11 mph 1012.6mb 36f 37f
3:00 6 11 mph 1012.8mb 36f 37f
2:54 7 10 mph 1013mb 36f 37f
2:48 6 10 mph 1013.2mb 36f 37f
2:42 5 8 mph 1013.3mb 36f 37f
2:36 6 10 mph 1013.3mb 36f 37f
2:30 3 10 mph 1013.3mb 36f 37f
2:24 3 10 mph 1013.3mb 36f 37f
2:18 6 11 mph 1013.3mb 36f 37f
2:12 5 13 mph 1013.4mb 36f 37f
2:06 5 11 mph 1013.4mb 36f 37f
2:00 6 13 mph 1013.5mb 36f 37f
1:54 8 14 mph 1013.4mb 36f 37f
1:48 5 14 mph 1013.4mb 36f 37f
1:42 5 11 mph 1013.3mb 36f 37f
1:36 3 11 mph 1013.3mb 36f 37f
1:30 6 11 mph 1013mb 36f 37f
1:24 5 10 mph 1012.9mb 36f 37f
1:18 5 11 mph 1013mb 36f 37f
1:12 5 13 mph 1013mb 36f 37f
1:06 7 11 mph 1012.9mb 36f 37f
1:00 6 11 mph 1013mb 36f 37f
12:54 8 11 mph 1013.1mb 36f 37f
12:48 7 11 mph 1013mb 36f 37f
12:42 6 9 mph 1012.9mb 36f 37f
12:36 3 9 mph 1013.1mb 36f 37f
12:30 5 9 mph 1013.1mb 36f 37f
12:24 7 11 mph 1013.2mb 36f 37f
12:18 7 14 mph 1013.3mb 36f 37f
12:12 7 11 mph 1013.3mb 36f 37f
12:06 8 11 mph 1013.3mb 36f 37f
12:00 5 9 mph 1013.5mb 36f 37f
Mo 01/16 11:54 5 9 mph 1013.7mb 36f 37f
11:48 3 10 mph 1013.7mb 36f 37f
11:42 2 7 mph 1013.7mb 36f 37f
11:36 2 9 mph 1013.8mb 36f 37f
11:30 3 8 mph 1013.8mb 36f 37f
11:24 5 13 mph 1013.8mb 36f 37f
11:18 6 10 mph 1013.8mb 36f 38f
11:12 3 11 mph 1013.8mb 36f 38f
11:06 6 13 mph 1013.7mb 36f 38f
11:00 7 14 mph 1013.6mb 36f 38f
10:54 6 11 mph 1013.5mb 36f 38f
10:48 5 11 mph 1013.6mb - -
10:42 7 11 mph 1013.7mb - -
10:36 2 11 mph 1013.7mb - -
10:30 8 14 mph 1013.7mb 36f 37f
10:24 6 11 mph 1013.7mb 36f 37f
10:18 7 11 mph 1013.9mb 36f 37f
10:12 6 14 mph 1013.7mb 36f 37f
10:06 3 9 mph 1013.7mb 36f 37f
10:00 5 9 mph 1013.8mb 36f 38f
9:54 3 7 mph 1014mb 36f 37f
9:48 3 8 mph - - -
9:42 5 10 mph - - -
9:36 5 10 mph - - -
9:30 2 8 mph 1014.4mb 36f 38f
9:24 2 10 mph 1014.7mb 36f 38f
9:18 6 11 mph 1014.8mb 36f 38f
9:12 2 7 mph 1014.8mb 36f 38f
9:06 2 7 mph 1014.9mb 36f 38f
9:00 2 7 mph 1015mb 36f 38f
8:54 5 10 mph 1015mb 36f 38f
8:48 6 10 mph 1015.1mb 36f 38f
8:42 3 8 mph 1015.2mb 36f 38f
8:36 5 11 mph 1015.2mb 36f 38f
8:30 6 10 mph 1015.4mb 36f 38f
8:24 6 10 mph 1015.5mb 36f 38f
8:18 6 13 mph 1015.6mb 36f 38f
8:12 7 10 mph 1015.5mb 36f 38f
8:06 6 8 mph 1015.5mb 36f 38f
8:00 6 11 mph 1015.5mb 36f 38f
7:54 6 9 mph 1015.5mb 36f 38f
7:48 3 10 mph 1015.7mb 36f 38f
7:42 3 9 mph 1015.7mb 36f 38f
7:36 6 8 mph 1015.8mb 36f 38f
7:30 3 9 mph 1015.9mb 36f 38f
7:24 6 10 mph 1016mb 36f 38f
7:18 8 10 mph 1016.2mb 36f 38f
7:12 6 10 mph 1016.2mb 36f 38f
7:06 5 8 mph 1016.2mb 36f 38f
7:00 3 8 mph 1016.2mb 36f 38f
6:54 5 8 mph 1016.3mb 36f 38f
6:48 6 10 mph 1016.6mb 36f 38f
6:42 6 10 mph 1016.6mb 36f 38f
6:36 8 11 mph 1016.6mb 36f 38f
6:30 7 10 mph 1016.7mb 36f 38f
6:24 3 9 mph 1016.6mb 36f 39f
6:18 6 10 mph 1016.7mb 36f 39f
6:12 8 13 mph 1016.7mb 36f 39f
6:06 7 13 mph 1016.7mb 36f 39f
6:00 9 13 mph 1016.8mb 36f 39f
5:54 6 11 mph 1016.7mb 36f 39f
5:48 7 11 mph 1016.6mb 36f 39f
5:42 5 10 mph 1016.6mb 36f 39f
5:36 6 13 mph 1016.5mb 36f 39f
5:30 8 11 mph 1016.6mb 36f 39f
5:24 6 11 mph 1016.6mb 36f 39f
5:18 7 10 mph 1016.6mb 36f 40f
5:12 6 11 mph 1016.6mb 36f 40f
5:06 8 13 mph 1016.6mb 36f 40f
5:00 8 14 mph 1016.4mb 36f 40f
4:54 8 14 mph 1016.5mb 36f 40f
4:48 7 14 mph 1016.4mb 36f 40f
4:42 8 11 mph 1016.2mb 36f 39f
4:36 3 7 mph 1016.4mb 36f 39f
4:30 3 8 mph 1016.3mb 36f 39f
4:24 1 6 mph 1016.5mb 36f 39f
4:18 5 8 mph 1016.6mb 36f 39f
4:12 5 8 mph 1016.8mb 36f 40f
4:06 7 10 mph 1017mb 36f 40f
4:00 7 11 mph 1016.9mb 36f 40f
3:54 7 11 mph 1017mb 36f 40f
3:48 7 13 mph 1016.9mb 36f 40f
3:42 7 10 mph 1017mb 36f 40f
3:36 8 13 mph 1017.1mb 36f 40f
3:30 8 14 mph 1017.1mb 36f 40f
3:24 8 14 mph 1017.2mb 36f 40f
3:18 8 11 mph 1017.2mb 36f 40f
3:12 8 14 mph 1017.2mb 36f 40f
3:06 10 16 mph 1017.3mb 36f 40f
3:00 11 18 mph 1017.3mb 36f 40f
2:54 8 14 mph 1017.2mb 36f 41f
2:48 6 11 mph 1017.3mb 36f 40f
2:42 7 11 mph 1017.7mb 36f 40f
2:36 10 13 mph 1017.5mb 36f 40f
2:30 5 10 mph 1017.4mb 36f 40f
2:24 3 6 mph 1017.5mb 36f 41f
2:18 8 13 mph 1017.7mb 36f 40f
2:12 5 7 mph 1017.9mb 36f 40f
2:06 5 7 mph 1018mb 36f 40f
2:00 5 8 mph 1018.2mb 36f 39f
1:54 7 8 mph 1018.7mb 36f 40f
1:48 6 10 mph 1018.8mb 36f 39f
1:42 6 10 mph 1018.8mb 36f 39f
1:36 7 11 mph 1018.9mb 36f 39f
1:30 7 14 mph 1018.9mb 36f 39f
1:24 10 13 mph 1019mb 36f 39f
1:18 8 10 mph 1019.1mb 36f 40f
1:12 8 14 mph 1019.1mb 36f 39f
1:06 11 16 mph 1018.8mb 36f 39f
1:00 9 13 mph 1018.6mb 36f 39f
12:54 9 13 mph 1018.5mb 36f 39f
12:48 8 13 mph 1018.7mb 36f 39f
12:42 9 15 mph 1018.7mb 36f 39f
12:36 10 15 mph 1018.4mb 36f 38f
12:30 9 13 mph 1018.4mb 36f 38f
12:24 7 15 mph 1018.4mb - 38f
12:18 9 14 mph 1018.5mb - 37f
12:12 8 13 mph 1018.8mb - 37f
12:06 8 13 mph 1018.8mb - 37f
12:00 5 9 mph 1019mb - 37f
11:54 5 8 mph 1019.3mb - 37f
11:48 5 8 mph 1019.3mb - 37f
11:42 3 7 mph 1019.5mb - 37f
11:36 5 13 mph 1019.7mb - 37f
11:30 5 14 mph 1019.7mb - 36f
11:24 8 14 mph 1019.9mb - 36f
11:18 3 8 mph 1020.2mb - 36f
11:12 2 7 mph 1020.5mb - 36f
11:06 3 10 mph 1020.8mb - 36f
11:00 8 14 mph 1021mb - 36f
10:54 7 13 mph 1021.2mb - 36f
10:48 6 10 mph 1021.3mb - 36f
10:42 3 7 mph 1021.4mb - 36f
10:36 2 6 mph 1021.7mb - 36f
10:30 6 13 mph 1021.6mb - 36f
10:24 7 13 mph 1021.3mb - 36f
10:18 7 11 mph 1021.4mb - 36f
10:12 6 10 mph 1021.4mb - 36f
10:06 3 9 mph 1021.4mb - 35f
10:00 5 8 mph 1021.4mb - 35f
9:54 5 11 mph 1021.6mb - 35f
9:48 7 15 mph 1021.6mb - 35f
9:42 5 9 mph 1021.5mb - 35f
9:36 3 10 mph 1021.5mb - 35f
9:30 2 6 mph 1021.6mb 36f 36f
9:24 3 11 mph 1021.7mb - 35f
9:18 8 13 mph 1021.8mb 36f 35f
9:12 3 7 mph 1021.8mb 36f 35f
9:06 2 6 mph 1021.5mb 36f 34f
9:00 5 9 mph 1021.4mb 36f 34f
8:54 5 8 mph 1021.2mb 36f 34f
8:48 3 8 mph 1021.1mb 36f 33f
8:42 3 9 mph 1021.1mb 36f 33f
8:36 6 11 mph 1021.2mb 36f 34f
8:30 7 11 mph 1021.4mb 36f 34f
8:24 6 13 mph 1021.4mb 36f 34f
8:18 6 9 mph 1021.3mb 36f 34f
8:12 3 10 mph 1021.3mb 36f 34f
8:06 6 9 mph 1021.2mb 36f 34f
8:00 3 9 mph 1021.2mb 36f 34f
7:54 5 8 mph 1021.1mb 36f 34f
7:48 5 11 mph 1021.1mb 36f 33f
7:42 8 14 mph 1021.2mb 36f 33f
7:36 7 11 mph 1021.1mb 36f 33f
7:30 7 14 mph 1021.2mb 36f 33f
7:24 7 14 mph 1021.2mb 36f 33f
7:18 9 13 mph 1021.2mb 36f 32f
7:12 8 13 mph 1021.2mb 36f 33f
7:06 7 16 mph 1021.2mb 36f 33f
7:00 13 16 mph 1021.3mb 36f 33f
6:54 9 15 mph 1021.5mb 36f 32f
6:48 8 11 mph 1021.5mb 36f 32f
6:42 7 11 mph 1021.6mb 36f 32f
6:36 3 6 mph 1021.6mb 36f 32f
6:30 5 9 mph 1021.7mb 36f 32f
6:24 3 9 mph 1021.8mb 36f 32f
6:18 8 11 mph 1022.1mb 36f 32f
6:12 3 7 mph 1022.1mb 36f 32f
6:06 3 9 mph 1022.1mb 36f 33f
6:00 7 14 mph 1022.2mb 36f 33f
5:54 9 13 mph 1022.4mb 36f 33f
5:48 7 11 mph 1022.7mb 36f 33f
5:42 8 11 mph 1022.6mb 36f 33f
5:36 10 14 mph 1022.7mb 36f 33f
5:30 8 11 mph 1022.9mb 36f 33f
5:24 3 9 mph 1023mb 36f 33f
5:18 6 8 mph 1023.2mb 36f 33f
5:12 7 10 mph 1023.1mb 36f 33f
5:06 6 9 mph 1023.1mb 36f 33f
5:00 3 8 mph 1023.3mb 36f 33f
4:54 5 8 mph 1023.4mb 36f 33f
4:48 5 8 mph 1023.3mb 36f 33f
4:42 2 9 mph 1023.4mb 36f 33f
4:36 6 10 mph 1023.4mb 36f 33f
4:30 6 11 mph 1023.3mb 36f 33f
4:24 9 11 mph 1023.4mb 36f 33f
4:18 7 13 mph 1023.4mb 36f 33f
4:12 9 11 mph 1023.5mb 36f 33f
4:06 6 9 mph 1023.7mb 36f 33f
4:00 7 9 mph 1023.7mb 36f 33f
3:54 5 8 mph 1023.6mb 36f 33f
3:48 6 9 mph 1023.6mb 36f 33f
3:42 6 10 mph 1023.5mb - 33f
3:36 7 9 mph 1023.7mb - 33f
3:30 7 10 mph 1023.8mb - 33f
3:24 6 8 mph 1023.9mb - 34f
3:18 2 9 mph 1023.9mb - 34f
3:12 5 8 mph 1024mb - 35f
3:06 3 6 mph 1024.1mb - 35f
3:00 3 10 mph 1023.8mb - 34f
2:54 3 8 mph 1023.7mb - 34f
2:48 6 9 mph 1023.8mb - 35f
2:42 7 10 mph 1023.8mb - 34f
2:36 6 9 mph 1023.9mb - 35f
2:30 8 11 mph 1023.8mb - 34f
2:24 7 10 mph 1023.6mb - 34f
2:18 2 9 mph 1023.6mb - 34f
2:12 7 9 mph 1023.6mb - 35f
2:06 2 5 mph 1023.5mb - 34f
2:00 2 8 mph 1023.6mb - 34f
1:54 3 6 mph 1023.7mb - 34f
1:48 5 7 mph 1023.6mb - 34f
1:42 2 8 mph 1023.6mb - 34f
1:36 5 7 mph 1023.6mb - 34f
1:30 3 7 mph 1023.7mb - 33f
1:24 5 8 mph 1024mb - 33f
1:18 7 9 mph 1024mb - 34f
1:12 5 9 mph 1024.1mb - 34f
1:06 6 8 mph 1024mb - 35f
1:00 6 14 mph 1023.8mb - 34f
12:54 6 10 mph 1023.8mb - 34f
12:48 5 8 mph 1023.8mb - 34f
12:42 3 7 mph 1024mb - 34f
12:36 6 8 mph 1024.1mb - 35f
12:30 7 8 mph 1023.4mb - 34f
12:24 6 8 mph 1023.1mb - 34f
12:18 7 13 mph 1023.2mb - 34f
12:12 8 10 mph 1023.5mb - 34f
12:06 8 11 mph 1023.9mb - 34f
12:00 3 7 mph 1024.3mb - 34f
So 01/15 11:54 2 7 mph 1024.3mb - 35f
11:48 6 13 mph 1024.4mb - 35f
11:42 7 10 mph 1024.8mb - 35f
11:36 6 11 mph 1025.1mb - 35f
11:30 5 11 mph 1025.2mb - 35f
11:24 6 14 mph 1025.2mb - 35f
11:18 8 13 mph 1024.9mb - 34f
11:12 9 11 mph 1025mb - 34f
11:06 6 13 mph 1025mb - 34f
11:00 2 7 mph 1024.9mb - 34f
10:54 5 8 mph 1024.8mb - 34f
10:48 5 9 mph 1024.6mb - -
10:42 6 9 mph 1024.3mb - -
10:36 6 7 mph 1024.3mb - -
10:30 2 7 mph 1024.3mb - 34f
10:24 5 8 mph 1024.2mb - 35f
10:18 3 7 mph 1024.2mb - 35f
10:12 6 10 mph 1024.2mb - 34f
10:06 6 9 mph 1024.4mb - 34f
10:00 3 6 mph 1024.6mb 36f 34f
9:54 5 7 mph 1024.7mb 36f 34f
9:48 2 6 mph 1024.6mb 36f 35f
9:42 6 7 mph 1024.7mb 36f 35f
9:36 2 9 mph 1024.5mb 36f 35f
9:30 5 7 mph 1024.3mb 36f 35f
9:24 3 6 mph 1024.4mb 36f 35f
9:18 5 13 mph 1024.5mb 36f 35f
9:12 6 13 mph 1024.1mb 36f 34f
9:06 7 11 mph 1024.2mb 36f 34f
9:00 6 9 mph 1024.2mb 36f 35f
8:54 5 8 mph 1024.2mb 36f 34f
8:48 3 7 mph 1024.2mb 36f 34f
8:42 3 7 mph 1024.2mb 36f 34f
8:36 5 9 mph 1024.1mb 36f 35f
8:30 7 11 mph 1023.9mb 36f 35f
8:24 8 11 mph 1023.8mb 36f 34f
8:18 7 14 mph 1023.8mb 36f 34f
8:12 9 13 mph 1023.8mb 36f 34f
8:06 8 16 mph 1024mb 36f 34f
8:00 10 15 mph 1023.8mb 36f 34f
7:54 8 16 mph 1024mb 36f 34f
7:48 9 13 mph 1024mb 36f 33f
7:42 9 14 mph 1024mb 36f 34f
7:36 7 14 mph 1023.9mb 36f 34f
7:30 8 13 mph 1024mb 36f 34f
7:24 7 11 mph 1023.8mb 36f 34f
7:18 9 11 mph 1023.8mb 36f 35f
7:12 5 8 mph 1023.7mb 36f 34f
7:06 3 8 mph 1023.8mb 36f 34f
7:00 2 14 mph 1023.6mb 36f 34f
6:54 2 10 mph 1023.8mb 36f 34f
6:48 8 20 mph 1023.9mb 36f 34f
6:42 15 20 mph 1024.1mb 36f 35f
6:36 5 9 mph 1025mb 36f 35f
6:30 2 6 mph 1025.1mb 36f 34f
6:24 2 9 mph 1025.2mb 36f 35f
6:18 7 10 mph 1025.3mb 36f 35f
6:12 5 6 mph 1025.4mb 36f 35f
6:06 5 6 mph 1025.4mb 36f 35f
6:00 3 7 mph 1025.4mb 36f 35f
5:54 1 5 mph 1025.6mb 36f 35f
5:48  -  3 mph 1025.6mb 36f 35f
5:42 2 5 mph 1025.6mb 36f 35f
5:36 2 6 mph 1025.6mb 36f 36f
5:30 1 7 mph 1025.6mb 36f 36f
5:24 2 5 mph 1025.5mb 36f 36f
5:18  -  5 mph 1025.5mb 36f 36f
5:12 2 5 mph 1025.4mb 36f 36f
5:06 1 6 mph 1025.5mb 36f 36f
5:00 2 9 mph 1025.5mb 36f 36f
4:54 6 8 mph 1025.4mb 36f 37f
4:48 2 7 mph 1025.5mb 36f 37f
4:42 2 6 mph 1025.4mb 36f 36f
4:36 2 5 mph 1025.3mb 36f 37f
4:30 3 6 mph 1025.1mb 36f 37f
4:24 3 5 mph 1025.1mb 36f 37f
4:18 2 6 mph 1025.1mb 36f 38f
4:12 2 5 mph 1025mb 36f 39f
4:06 2 8 mph 1024.9mb 36f 39f
4:00 3 8 mph 1024.8mb 36f 39f
3:54 2 8 mph 1024.9mb 36f 39f
3:48 2 7 mph 1024.9mb 36f 40f
3:42 2 6 mph 1024.9mb 36f 40f
3:36 2 6 mph 1024.8mb 36f 39f
3:30 5 7 mph 1024.7mb 36f 39f
3:24 5 7 mph 1024.6mb 36f 39f
3:18 5 7 mph 1024.6mb 36f 39f
3:12 5 7 mph 1024.5mb 36f 40f
3:06 3 6 mph 1024.5mb 36f 39f
3:00 3 7 mph 1024.5mb 36f 40f
2:54 3 7 mph 1024.4mb 36f 40f
2:48 3 7 mph 1024.3mb 36f 39f
2:42 3 7 mph 1024.2mb 36f 40f
2:36 5 6 mph 1024.2mb 36f 39f
2:30 3 9 mph 1024mb 36f 39f
2:24 5 6 mph 1024mb - 38f
2:18 5 7 mph 1024mb - 38f
2:12 3 7 mph 1024mb - 38f
2:06 2 7 mph 1024.2mb - 38f
2:00 2 8 mph 1024.2mb - 39f
1:54 3 7 mph 1024.3mb - 38f
1:48 6 8 mph 1024.2mb - 38f
1:42 5 10 mph 1024.1mb - 38f
1:36 6 10 mph 1024.1mb - 37f
1:30 5 9 mph 1024.1mb - 38f
1:24 8 11 mph 1024.1mb - 37f
1:18 6 10 mph 1023.9mb - 37f
1:12 7 9 mph 1023.8mb - 37f
1:06 6 11 mph 1023.9mb - 37f
1:00 7 10 mph 1023.8mb - 37f
12:54 5 8 mph 1023.8mb - 37f
12:48 6 10 mph 1023.9mb - 36f
12:42 7 10 mph 1024mb - 36f
12:36 6 9 mph 1024.1mb - 36f
12:30 6 9 mph 1024.2mb - 35f
12:24 6 13 mph 1024.3mb - 35f
12:18 7 9 mph 1024.5mb - 35f
12:12 5 10 mph 1024.5mb - 35f
12:06 8 10 mph 1024.4mb - 34f
12:00 3 7 mph 1024.5mb - 35f
11:54 2 6 mph 1024.6mb - 35f
11:48 2 10 mph 1024.8mb - 35f
11:42 5 9 mph 1024.8mb - 34f
11:36 5 8 mph 1025mb - 34f
11:30 6 10 mph 1025.1mb - 34f
11:24 5 14 mph 1025.1mb - 34f
11:18 7 10 mph 1025.1mb - 33f
11:12 5 8 mph 1025.3mb - 33f
11:06 1 9 mph 1025.4mb - 34f
11:00 6 11 mph 1025.4mb - 32f
10:54 7 10 mph 1025.5mb - 32f
10:48 6 9 mph 1025.5mb - 32f
10:42 5 10 mph 1025.6mb - 31f
10:36 7 11 mph 1025.6mb - 31f
10:30 6 10 mph 1025.6mb - 31f
10:24 7 9 mph 1025.7mb - 31f
10:18 7 10 mph 1025.7mb - 31f
10:12 1 7 mph 1025.7mb - 33f
10:06 6 8 mph 1025.7mb - 32f
10:00 6 8 mph 1025.8mb - 32f
9:54 2 7 mph 1025.8mb - 33f
9:48 5 9 mph 1025.8mb - 33f
9:42 3 7 mph 1025.7mb - 33f
9:36 6 8 mph 1025.6mb - 33f
9:30 6 10 mph 1025.6mb - 32f
9:24 3 9 mph 1025.6mb - 32f
9:18 3 8 mph 1025.5mb - 31f
9:12 3 8 mph 1025.4mb 36f 31f
9:06 2 10 mph 1025.4mb 36f 31f
9:00 6 10 mph 1025.4mb 36f 31f
8:54 7 13 mph 1025.5mb 36f 30f
8:48 8 11 mph 1025.5mb 36f 30f
8:42 6 8 mph 1025.4mb 36f 30f
8:36 3 6 mph 1025.4mb 36f 30f
8:30 5 10 mph 1025.3mb 36f 30f
8:24 7 11 mph 1025.2mb 36f 30f
8:18 7 11 mph 1025.2mb 36f 30f
8:12 7 13 mph 1025.1mb 36f 30f
8:06 6 11 mph 1025mb 36f 30f
8:00 5 8 mph 1024.9mb 36f 30f
7:54 5 10 mph 1024.8mb 36f 31f
7:48 3 11 mph 1024.7mb 36f 31f
7:42 9 14 mph 1024.5mb 36f 31f
7:36 8 11 mph 1024.3mb 36f 31f
7:30 7 9 mph 1024.3mb 36f 31f
7:24 7 11 mph 1024.3mb 36f 30f
7:18 7 10 mph 1024.4mb 36f 30f
7:12 6 10 mph 1024.5mb - 30f
7:06 7 9 mph 1024.5mb - 30f
7:00 7 11 mph 1024.5mb - 31f
6:54 3 7 mph 1024.7mb - 31f
6:48 5 7 mph 1024.7mb - 31f
6:42 2 8 mph 1025mb - 31f
6:36 3 6 mph 1025mb - 31f
6:30 5 7 mph 1025mb - 31f
6:24 2 7 mph 1025.1mb - 31f
6:18 2 8 mph 1025.2mb - 31f
6:12 5 9 mph 1025.1mb - 31f
6:06 5 10 mph 1025.1mb - 31f
6:00 6 11 mph 1025.1mb - 31f
5:54 8 11 mph 1025.1mb - 31f
5:48 8 11 mph 1025.1mb - 31f
5:42 7 13 mph 1025.1mb - 31f
5:36 5 9 mph 1025mb - 31f
5:30 6 9 mph 1024.8mb - 32f
5:24 3 7 mph 1024.9mb - 32f
5:18 3 7 mph 1025mb - 32f
5:12 6 7 mph 1025mb - 32f
5:06 5 9 mph 1024.8mb 36f 33f
5:00 5 7 mph 1024.8mb 36f 33f
4:54 3 6 mph 1024.8mb 36f 33f
4:48 6 9 mph 1024.9mb 36f 33f
4:42 5 8 mph 1024.8mb 36f 32f
4:36 5 8 mph 1024.9mb 36f 32f
4:30 6 9 mph 1025mb 36f 32f
4:24 8 14 mph 1025mb 36f 32f
4:18 7 11 mph 1025mb 36f 32f
4:12 7 11 mph 1025.2mb 36f 33f
4:06 9 13 mph 1025.3mb 36f 33f
4:00 7 14 mph 1025.4mb 36f 33f
3:54 1 6 mph 1025.3mb 36f 33f
3:48 2 6 mph 1025.2mb 36f 33f
3:42 3 7 mph 1025.1mb 36f 33f
3:36 5 7 mph 1025.1mb 36f 33f
3:30 5 7 mph 1025mb 36f 33f
3:24 3 8 mph 1025mb - 33f
3:18 7 10 mph 1024.9mb - 33f
3:12 5 9 mph 1024.9mb - 33f
3:06 6 13 mph 1025mb - 33f
3:00 6 10 mph 1025mb - 33f
2:54 9 14 mph 1025mb - 33f
2:48 8 11 mph 1025.1mb - 33f
2:42 7 8 mph 1025.4mb - 33f